KEVV/EVV METAR and TAF weather

Enter ICAO airport designator
Station Type Date Time Source
KEVV METAR 2022/05/24 10:54 UTC NOAA

KEVV 241054Z 06005KT 10SM OVC023 14/11 A3012 RMK AO2 SLP199 T01390111 $


Station Type Date Time Source
KEVV Decoded METAR 2022/05/24 10:54 UTC NOAA

EVANSVILLE REGIONAL, IN, United States (KEVV) 38-02N 087-32W 117M
May 24, 2022 - 06:54 AM EDT / 2022.05.24 1054 UTC
Wind: from the ENE (060 degrees) at 6 MPH (5 KT):0
Visibility: 10 mile(s):0
Sky conditions: overcast
Temperature: 57.0 F (13.9 C)
Dew Point: 52.0 F (11.1 C)
Relative Humidity: 83%
Pressure (altimeter): 30.12 in. Hg (1019 hPa)
ob: KEVV 241054Z 06005KT 10SM OVC023 14/11 A3012 RMK AO2 SLP199 T01390111
cycle: 11

Station Type Date Time Source
KEVV TAF 2022/05/24 08:18 UTC NOAA

TAF
AMD KEVV 240815Z 2408/2506 VRB03KT P6SM BKN020
FM241200 05005KT P6SM BKN030
FM241300 07006KT P6SM OVC060
FM241500 08007KT P6SM BKN045
FM241800 09009KT P6SM SCT120
FM250400 12008KT P6SM SCT150

Example: see airport list